createdAt,value
2019-01-05T00:03:13.886Z,86.58
2019-01-05T00:08:41.197Z,86.84
2019-01-05T00:13:55.182Z,88.57
2019-01-05T00:19:10.969Z,88.24
2019-01-05T00:24:41.230Z,87.76
2019-01-05T00:30:17.004Z,88.03
2019-01-05T00:35:52.899Z,87.68
2019-01-05T00:41:11.532Z,87.94
2019-01-05T00:46:29.860Z,88.92
2019-01-05T00:51:46.222Z,88.30
2019-01-05T00:57:02.314Z,89.34
2019-01-05T01:02:16.488Z,88.02
2019-01-05T01:07:31.511Z,87.13
2019-01-05T01:13:01.649Z,88.70
2019-01-05T01:18:15.333Z,87.94
2019-01-05T01:23:30.102Z,88.63
2019-01-05T01:28:59.346Z,89.22
2019-01-05T01:34:11.163Z,88.92
2019-01-05T01:39:31.193Z,88.88
2019-01-05T01:45:04.089Z,88.59
2019-01-05T01:50:18.951Z,89.10
2019-01-05T01:55:36.614Z,88.51
2019-01-05T02:00:52.362Z,88.37
2019-01-05T02:06:10.579Z,88.35
2019-01-05T02:11:26.394Z,88.23
2019-01-05T02:17:07.200Z,88.85
2019-01-05T02:23:21.519Z,87.79
2019-01-05T02:29:34.966Z,87.61
2019-01-05T02:36:12.604Z,88.20
2019-01-05T02:42:41.966Z,87.47
2019-01-05T02:49:04.425Z,88.27
2019-01-05T02:55:42.209Z,87.27
2019-01-05T03:01:54.662Z,87.84
2019-01-05T03:08:17.340Z,88.57
2019-01-05T03:14:38.129Z,86.72
2019-01-05T03:21:01.087Z,86.36
2019-01-05T03:27:03.606Z,87.50
2019-01-05T03:33:02.665Z,86.56
2019-01-05T03:39:14.787Z,85.47
2019-01-05T03:45:21.198Z,85.45
2019-01-05T03:51:58.780Z,86.10
2019-01-05T03:58:15.104Z,86.03
2019-01-05T04:04:38.276Z,85.41
2019-01-05T04:10:39.832Z,85.62
2019-01-05T04:16:51.916Z,85.57
2019-01-05T04:23:03.239Z,86.97
2019-01-05T04:29:09.280Z,87.11
2019-01-05T04:35:22.450Z,87.07
2019-01-05T04:41:41.083Z,85.98
2019-01-05T04:48:16.324Z,86.32
2019-01-05T04:54:42.369Z,87.09
2019-01-05T05:00:46.228Z,85.63
2019-01-05T05:07:20.354Z,86.40
2019-01-05T05:13:32.115Z,86.93
2019-01-05T05:19:45.083Z,85.95
2019-01-05T05:25:56.049Z,85.80
2019-01-05T05:32:39.944Z,85.66
2019-01-05T05:44:08.671Z,84.60
2019-01-05T05:49:49.255Z,85.15
2019-01-05T05:56:14.426Z,83.46
2019-01-05T06:02:08.590Z,84.49
2019-01-05T06:08:34.412Z,84.11
2019-01-05T06:15:12.652Z,84.50
2019-01-05T06:21:54.403Z,85.01
2019-01-05T06:28:23.952Z,87.53
2019-01-05T06:34:30.933Z,89.24
2019-01-05T06:41:05.224Z,90.23
2019-01-05T06:47:48.161Z,91.42
2019-01-05T06:54:20.082Z,92.82
2019-01-05T07:00:49.710Z,95.42
2019-01-05T07:07:20.983Z,98.99
2019-01-05T07:13:14.510Z,99.93
2019-01-05T07:19:34.274Z,97.24
2019-01-05T07:25:59.302Z,97.42
2019-01-05T07:32:15.751Z,97.14
2019-01-05T07:38:56.561Z,98.28
2019-01-05T07:45:31.243Z,98.91
2019-01-05T07:51:36.811Z,99.40
2019-01-05T07:57:48.597Z,99.52
2019-01-05T08:04:00.642Z,99.17
2019-01-05T08:10:16.630Z,98.89
2019-01-05T08:16:12.298Z,100.00
2019-01-05T08:22:35.431Z,100.00
2019-01-05T08:28:37.035Z,100.00
2019-01-05T08:34:47.142Z,100.00
2019-01-05T08:40:48.175Z,100.00
2019-01-05T08:47:08.899Z,100.00
2019-01-05T08:53:12.303Z,100.00
2019-01-05T08:59:38.370Z,100.00
2019-01-05T09:05:50.803Z,100.00
2019-01-05T09:12:00.475Z,100.00
2019-01-05T09:18:22.324Z,100.00
2019-01-05T09:24:37.378Z,100.00
2019-01-05T09:30:49.458Z,100.00
2019-01-05T09:37:07.634Z,100.00
2019-01-05T09:43:18.631Z,100.00
2019-01-05T09:49:45.788Z,100.00
2019-01-05T09:55:59.395Z,100.00
2019-01-05T10:02:16.518Z,100.00
2019-01-05T10:08:52.844Z,100.00
2019-01-05T10:15:26.362Z,100.00
2019-01-05T10:22:13.410Z,100.00
2019-01-05T10:28:32.993Z,100.00
2019-01-05T10:35:15.734Z,100.00
2019-01-05T10:41:43.068Z,100.00
2019-01-05T10:47:46.237Z,100.00
2019-01-05T10:53:53.167Z,100.00
2019-01-05T10:59:57.618Z,100.00
2019-01-05T11:06:35.913Z,100.00
2019-01-05T11:13:07.782Z,100.00
2019-01-05T11:26:15.167Z,100.00
2019-01-05T11:33:15.184Z,100.00
2019-01-05T11:39:13.821Z,100.00
2019-01-05T11:45:16.903Z,100.00
2019-01-05T11:51:38.414Z,100.00
2019-01-05T12:04:39.536Z,100.00
2019-01-05T12:17:12.282Z,100.00
2019-01-05T12:23:34.697Z,100.00
2019-01-05T12:29:54.961Z,100.00
2019-01-05T12:36:30.585Z,100.00
2019-01-05T13:02:32.535Z,100.00
2019-01-05T13:08:15.066Z,100.00
2019-01-05T13:14:47.755Z,100.00
2019-01-05T13:21:07.440Z,100.00
2019-01-05T13:27:19.196Z,100.00
2019-01-05T13:35:13.736Z,100.00
2019-01-05T13:40:12.657Z,100.00
2019-01-05T13:46:31.391Z,100.00
2019-01-05T13:52:39.757Z,100.00
2019-01-05T13:57:59.341Z,100.00
2019-01-05T14:03:42.494Z,100.00
2019-01-05T14:09:01.027Z,100.00
2019-01-05T14:14:19.897Z,100.00
2019-01-05T14:19:40.754Z,100.00
2019-01-05T14:25:10.740Z,100.00
2019-01-05T14:30:26.390Z,100.00
2019-01-05T14:35:56.676Z,100.00
2019-01-05T14:40:52.425Z,100.00
2019-01-05T14:46:07.114Z,100.00
2019-01-05T14:51:21.723Z,100.00
2019-01-05T14:56:36.361Z,100.00
2019-01-05T15:01:49.889Z,100.00
2019-01-05T15:07:02.295Z,100.00
2019-01-05T15:12:19.187Z,100.00
2019-01-05T15:17:38.384Z,100.00
2019-01-05T15:22:50.505Z,100.00
2019-01-05T15:28:20.335Z,100.00
2019-01-05T15:33:33.906Z,100.00
2019-01-05T15:38:45.300Z,100.00
2019-01-05T15:44:03.708Z,100.00
2019-01-05T15:49:22.496Z,100.00
2019-01-05T15:54:38.476Z,100.00
2019-01-05T16:00:03.109Z,100.00
2019-01-05T16:05:38.960Z,100.00
2019-01-05T16:10:53.552Z,100.00
2019-01-05T16:16:26.835Z,100.00
2019-01-05T16:21:53.814Z,100.00
2019-01-05T16:27:12.236Z,100.00
2019-01-05T16:32:37.169Z,100.00
2019-01-05T16:37:51.520Z,100.00
2019-01-05T16:43:18.589Z,100.00
2019-01-05T16:48:32.168Z,100.00
2019-01-05T16:54:02.236Z,100.00
2019-01-05T16:59:17.378Z,100.00
2019-01-05T17:04:31.902Z,100.00
2019-01-05T17:10:04.981Z,100.00
2019-01-05T17:15:22.639Z,100.00
2019-01-05T17:20:28.231Z,100.00
2019-01-05T17:25:52.119Z,100.00
2019-01-05T17:31:05.760Z,100.00
2019-01-05T17:36:18.894Z,100.00
2019-01-05T17:41:33.981Z,100.00
2019-01-05T17:46:47.561Z,100.00
2019-01-05T17:52:05.621Z,100.00
2019-01-05T17:57:17.688Z,100.00
2019-01-05T18:02:35.255Z,100.00
2019-01-05T18:07:59.331Z,100.00
2019-01-05T18:13:17.301Z,100.00
2019-01-05T18:18:32.151Z,100.00
2019-01-05T18:23:45.229Z,100.00
2019-01-05T18:29:00.031Z,100.00
2019-01-05T18:34:24.012Z,100.00
2019-01-05T18:39:37.521Z,100.00
2019-01-05T18:44:50.863Z,100.00
2019-01-05T18:50:14.887Z,100.00
2019-01-05T18:55:35.893Z,100.00
2019-01-05T19:00:46.504Z,100.00
2019-01-05T19:06:01.099Z,100.00
2019-01-05T19:11:10.381Z,100.00
2019-01-05T19:16:32.408Z,100.00
2019-01-05T19:22:15.165Z,100.00
2019-01-05T19:27:42.854Z,100.00
2019-01-05T19:33:17.530Z,100.00
2019-01-05T19:38:33.680Z,100.00
2019-01-05T19:43:46.356Z,100.00
2019-01-05T19:49:03.707Z,100.00
2019-01-05T19:54:26.698Z,100.00
2019-01-05T19:59:54.946Z,100.00
2019-01-05T20:05:11.547Z,100.00
2019-01-05T20:10:27.787Z,100.00
2019-01-05T20:16:04.615Z,100.00
2019-01-05T20:21:16.465Z,100.00
2019-01-05T20:26:46.911Z,100.00
2019-01-05T20:32:13.813Z,100.00
2019-01-05T20:37:46.687Z,100.00
2019-01-05T20:43:04.682Z,100.00
2019-01-05T20:48:28.819Z,100.00
2019-01-05T20:53:49.415Z,100.00
2019-01-05T20:59:06.505Z,100.00
2019-01-05T21:04:52.256Z,100.00
2019-01-05T21:10:09.735Z,100.00
2019-01-05T21:15:37.310Z,100.00
2019-01-05T21:20:51.069Z,100.00
2019-01-05T21:26:06.487Z,100.00
2019-01-05T21:31:22.837Z,100.00
2019-01-05T21:36:37.424Z,100.00
2019-01-05T21:41:52.230Z,100.00
2019-01-05T21:47:19.533Z,100.00
2019-01-05T21:52:34.298Z,100.00
2019-01-05T21:57:50.775Z,100.00
2019-01-05T22:03:08.433Z,100.00
2019-01-05T22:08:19.205Z,100.00
2019-01-05T22:13:33.072Z,100.00
2019-01-05T22:18:47.809Z,100.00
2019-01-05T22:24:11.748Z,100.00
2019-01-05T22:29:35.539Z,100.00
2019-01-05T22:34:59.725Z,100.00
2019-01-05T22:40:22.280Z,100.00
2019-01-05T22:45:38.789Z,100.00
2019-01-05T22:50:52.248Z,100.00
2019-01-05T22:56:15.986Z,100.00
2019-01-05T23:01:42.858Z,100.00
2019-01-05T23:07:06.831Z,100.00
2019-01-05T23:12:19.502Z,100.00
2019-01-05T23:17:33.135Z,100.00
2019-01-05T23:22:56.902Z,100.00
2019-01-05T23:28:20.701Z,100.00
2019-01-05T23:33:38.593Z,100.00
2019-01-05T23:38:52.364Z,100.00
2019-01-05T23:44:19.326Z,100.00
2019-01-05T23:49:43.251Z,100.00
2019-01-05T23:55:00.972Z,100.00
